createdAt,value
2019-06-11T00:00:45.479Z,15.14
2019-06-11T00:03:14.292Z,15.17
2019-06-11T00:05:45.931Z,15.23
2019-06-11T00:08:13.848Z,15.20
2019-06-11T00:10:42.707Z,15.16
2019-06-11T00:19:08.120Z,15.19
2019-06-11T00:21:46.238Z,15.15
2019-06-11T00:24:22.671Z,15.11
2019-06-11T00:26:52.913Z,15.11
2019-06-11T00:29:43.833Z,15.12
2019-06-11T00:38:28.956Z,15.11
2019-06-11T00:40:57.993Z,15.10
2019-06-11T00:43:34.924Z,15.09
2019-06-11T00:46:12.804Z,15.06
2019-06-11T00:48:40.435Z,15.07
2019-06-11T00:51:10.262Z,15.11
2019-06-11T00:53:43.308Z,15.10
2019-06-11T00:56:12.600Z,15.09
2019-06-11T00:58:40.016Z,15.10
2019-06-11T01:04:09.291Z,15.14
2019-06-11T01:06:42.189Z,15.13
2019-06-11T01:12:16.312Z,15.17
2019-06-11T01:14:44.245Z,15.11
2019-06-11T01:17:25.148Z,15.09
2019-06-11T01:19:53.070Z,15.07
2019-06-11T01:22:37.972Z,15.05
2019-06-11T01:25:08.355Z,15.04
2019-06-11T01:27:41.972Z,15.04
2019-06-11T01:30:23.156Z,15.02
2019-06-11T01:32:59.197Z,15.01
2019-06-11T01:35:38.820Z,15.02
2019-06-11T01:38:16.652Z,15.02
2019-06-11T01:40:44.552Z,15.00
2019-06-11T01:43:29.712Z,15.00
2019-06-11T01:45:58.545Z,15.04
2019-06-11T01:48:39.993Z,15.06
2019-06-11T01:54:22.527Z,15.05
2019-06-11T01:56:48.258Z,15.07
2019-06-11T01:59:16.313Z,15.08
2019-06-11T02:01:44.098Z,15.08
2019-06-11T02:04:22.866Z,15.11
2019-06-11T02:06:53.221Z,15.11
2019-06-11T02:09:38.546Z,15.13
2019-06-11T02:15:12.828Z,15.16
2019-06-11T02:17:40.253Z,15.16
2019-06-11T02:23:13.409Z,15.21
2019-06-11T02:25:42.442Z,15.19
2019-06-11T02:28:09.114Z,15.22
2019-06-11T02:30:50.820Z,15.18
2019-06-11T02:36:30.347Z,15.23
2019-06-11T02:38:51.320Z,15.22
2019-06-11T02:41:44.041Z,15.22
2019-06-11T02:44:17.221Z,15.26
2019-06-11T02:46:42.090Z,15.28
2019-06-11T02:52:27.251Z,15.23
2019-06-11T02:55:01.898Z,15.20
2019-06-11T03:03:37.160Z,15.05
2019-06-11T03:06:05.081Z,14.67
2019-06-11T03:08:57.318Z,14.49
2019-06-11T03:11:42.460Z,14.29
2019-06-11T03:14:14.088Z,14.15
2019-06-11T03:16:46.539Z,14.04
2019-06-11T03:19:17.746Z,13.90
2019-06-11T03:22:01.991Z,13.78
2019-06-11T03:24:30.830Z,13.70
2019-06-11T03:27:00.973Z,13.62
2019-06-11T03:29:47.414Z,13.54
2019-06-11T03:36:19.563Z,13.46
2019-06-11T03:37:44.700Z,13.43
2019-06-11T03:40:05.606Z,13.41
2019-06-11T03:48:37.425Z,13.22
2019-06-11T03:51:07.287Z,13.21
2019-06-11T03:53:36.314Z,13.20
2019-06-11T03:56:03.142Z,13.19
2019-06-11T03:58:37.732Z,13.12
2019-06-11T04:01:04.395Z,13.07
2019-06-11T04:12:34.296Z,13.10
2019-06-11T04:15:02.473Z,13.05
2019-06-11T04:17:58.983Z,13.02
2019-06-11T04:20:19.283Z,13.01
2019-06-11T04:23:01.659Z,13.10
2019-06-11T04:25:35.090Z,13.09
2019-06-11T04:28:02.629Z,13.05
2019-06-11T04:30:42.023Z,13.11
2019-06-11T04:32:57.678Z,13.14
2019-06-11T04:35:42.709Z,13.16
2019-06-11T04:44:06.297Z,12.99
2019-06-11T04:46:36.978Z,13.09
2019-06-11T04:49:03.056Z,13.05
2019-06-11T04:51:42.328Z,12.98
2019-06-11T05:05:45.509Z,13.02
2019-06-11T05:08:16.401Z,13.02
2019-06-11T05:10:46.624Z,13.00
2019-06-11T05:25:03.448Z,13.21
2019-06-11T05:27:41.778Z,13.18
2019-06-11T05:30:17.077Z,13.25
2019-06-11T05:32:41.975Z,13.43
2019-06-11T05:35:27.964Z,13.71
2019-06-11T05:38:09.120Z,13.83
2019-06-11T05:40:41.375Z,14.12
2019-06-11T05:43:12.725Z,14.42
2019-06-11T05:45:43.164Z,14.55
2019-06-11T05:51:06.056Z,14.73
2019-06-11T05:53:35.431Z,14.68
2019-06-11T06:02:25.263Z,14.95
2019-06-11T06:04:52.336Z,14.75
2019-06-11T06:07:23.611Z,15.04
2019-06-11T06:09:51.348Z,15.09
2019-06-11T06:12:21.346Z,15.07
2019-06-11T06:15:04.841Z,15.12
2019-06-11T06:17:46.510Z,15.83
2019-06-11T06:20:15.351Z,16.55
2019-06-11T06:22:44.237Z,16.49
2019-06-11T06:25:12.172Z,15.88
2019-06-11T06:27:43.972Z,16.21
2019-06-11T06:30:12.862Z,16.22
2019-06-11T06:33:03.414Z,16.09
2019-06-11T06:38:40.090Z,16.85
2019-06-11T06:41:04.196Z,16.40
2019-06-11T06:43:35.439Z,17.05
2019-06-11T06:46:04.777Z,16.97
2019-06-11T06:48:35.813Z,15.92
2019-06-11T06:51:00.994Z,16.26
2019-06-11T06:53:34.997Z,16.51
2019-06-11T06:56:09.907Z,16.48
2019-06-11T07:01:43.031Z,16.17
2019-06-11T07:04:14.187Z,15.98
2019-06-11T07:06:41.459Z,16.03
2019-06-11T07:09:09.218Z,17.03
2019-06-11T07:11:41.045Z,16.16
2019-06-11T07:14:10.950Z,16.08
2019-06-11T07:16:57.351Z,16.04
2019-06-11T07:19:11.037Z,16.76
2019-06-11T07:21:39.601Z,16.78
2019-06-11T07:24:08.481Z,16.08
2019-06-11T07:26:35.354Z,16.17
2019-06-11T07:29:02.766Z,16.42
2019-06-11T07:31:34.904Z,16.52
2019-06-11T07:34:05.511Z,16.91
2019-06-11T07:36:37.386Z,16.68
2019-06-11T07:39:27.232Z,16.60
2019-06-11T07:41:35.344Z,16.15
2019-06-11T07:44:01.242Z,16.34
2019-06-11T07:46:46.819Z,16.45
2019-06-11T07:49:05.089Z,16.59
2019-06-11T07:51:34.069Z,16.43
2019-06-11T07:54:01.231Z,16.28
2019-06-11T07:56:41.533Z,16.23
2019-06-11T07:59:06.961Z,16.23
2019-06-11T08:02:01.389Z,17.14
2019-06-11T08:04:40.432Z,18.28
2019-06-11T08:07:06.445Z,17.79
2019-06-11T08:13:00.402Z,17.06
2019-06-11T08:15:15.725Z,17.52
2019-06-11T08:17:51.337Z,18.03
2019-06-11T08:23:09.020Z,17.72
2019-06-11T08:25:33.582Z,18.90
2019-06-11T08:25:38.982Z,18.60
2019-06-11T08:28:10.656Z,19.46
2019-06-11T08:36:30.888Z,18.43
2019-06-11T08:42:01.622Z,17.43
2019-06-11T08:44:31.162Z,17.20
2019-06-11T08:47:07.078Z,17.48
2019-06-11T08:49:37.635Z,18.05
2019-06-11T08:52:14.876Z,17.98
2019-06-11T08:54:44.819Z,18.04
2019-06-11T08:57:25.711Z,17.65
2019-06-11T09:00:26.886Z,17.76
2019-06-11T09:02:26.793Z,17.86
2019-06-11T09:07:55.441Z,17.85
2019-06-11T09:10:34.401Z,18.57
2019-06-11T09:13:02.368Z,18.53
2019-06-11T09:15:30.763Z,18.63
2019-06-11T09:18:01.580Z,19.27
2019-06-11T09:20:31.246Z,19.85
2019-06-11T09:23:01.152Z,21.10
2019-06-11T09:25:31.086Z,21.50
2019-06-11T09:28:00.193Z,21.52
2019-06-11T09:30:26.467Z,22.57
2019-06-11T09:35:54.242Z,20.89
2019-06-11T09:38:27.031Z,21.04
2019-06-11T09:41:12.371Z,20.62
2019-06-11T09:43:41.787Z,21.18
2019-06-11T09:46:21.471Z,21.16
2019-06-11T09:48:53.114Z,21.35
2019-06-11T09:51:16.947Z,21.85
2019-06-11T09:53:45.867Z,21.82
2019-06-11T09:56:13.710Z,20.78
2019-06-11T09:58:42.441Z,22.13
2019-06-11T10:01:10.956Z,22.05
2019-06-11T10:03:40.389Z,21.45
2019-06-11T10:06:09.024Z,22.02
2019-06-11T10:08:40.005Z,24.09
2019-06-11T10:11:36.693Z,24.75
2019-06-11T10:13:34.698Z,25.11
2019-06-11T10:16:03.706Z,25.02
2019-06-11T10:18:31.057Z,25.14
2019-06-11T10:21:00.395Z,24.14
2019-06-11T10:23:30.493Z,20.87
2019-06-11T10:26:00.845Z,21.93
2019-06-11T10:28:31.117Z,22.66
2019-06-11T10:33:56.785Z,22.79
2019-06-11T10:36:23.951Z,21.97
2019-06-11T10:38:55.677Z,23.95
2019-06-11T10:41:30.075Z,23.70
2019-06-11T10:44:02.789Z,22.61
2019-06-11T10:46:30.729Z,25.13
2019-06-11T10:54:55.126Z,26.38
2019-06-11T10:57:21.875Z,26.40
2019-06-11T10:59:56.066Z,26.09
2019-06-11T11:02:30.689Z,25.42
2019-06-11T11:05:01.891Z,23.48
2019-06-11T11:07:30.848Z,22.85
2019-06-11T11:13:10.853Z,24.81
2019-06-11T11:15:40.618Z,25.56
2019-06-11T11:18:14.248Z,24.27
2019-06-11T11:20:42.169Z,27.24
2019-06-11T11:23:11.023Z,25.37
2019-06-11T11:25:41.352Z,26.16
2019-06-11T11:28:18.934Z,27.45
2019-06-11T11:30:35.722Z,27.02
2019-06-11T11:33:07.430Z,27.08
2019-06-11T11:35:31.554Z,27.49
2019-06-11T11:38:06.704Z,28.95
2019-06-11T11:40:41.053Z,29.74
2019-06-11T11:43:30.454Z,28.65
2019-06-11T11:46:12.689Z,28.30
2019-06-11T11:48:40.610Z,28.29
2019-06-11T11:51:11.772Z,27.90
2019-06-11T11:53:40.950Z,28.59
2019-06-11T11:56:30.887Z,26.64
2019-06-11T11:59:13.969Z,24.36
2019-06-11T12:01:42.308Z,24.77
2019-06-11T12:04:24.185Z,25.78
2019-06-11T12:06:54.143Z,26.72
2019-06-11T12:09:23.158Z,28.46
2019-06-11T12:11:53.521Z,28.97
2019-06-11T12:14:20.638Z,29.12
2019-06-11T12:16:48.090Z,28.61
2019-06-11T12:19:31.792Z,30.12
2019-06-11T12:25:16.662Z,31.54
2019-06-11T12:27:31.876Z,31.59
2019-06-11T12:30:10.967Z,30.72
2019-06-11T12:32:33.627Z,30.43
2019-06-11T12:37:57.642Z,27.44
2019-06-11T12:40:24.477Z,27.73
2019-06-11T12:43:25.152Z,26.81
2019-06-11T12:45:25.193Z,28.74
2019-06-11T12:53:55.404Z,30.44
2019-06-11T12:56:22.405Z,32.10
2019-06-11T12:58:53.374Z,33.31
2019-06-11T13:01:25.464Z,34.85
2019-06-11T13:03:56.409Z,34.71
2019-06-11T13:06:30.750Z,33.92
2019-06-11T13:08:58.865Z,33.87
2019-06-11T13:11:25.710Z,32.04
2019-06-11T13:14:02.995Z,32.39
2019-06-11T13:16:32.849Z,32.27
2019-06-11T13:18:59.917Z,31.49
2019-06-11T13:21:26.417Z,27.94
2019-06-11T13:24:07.288Z,28.38
2019-06-11T13:26:30.170Z,29.89
2019-06-11T13:29:00.979Z,31.23
2019-06-11T13:31:30.119Z,32.84
2019-06-11T13:33:59.117Z,31.27
2019-06-11T13:36:30.595Z,31.44
2019-06-11T13:39:04.975Z,29.34
2019-06-11T13:41:30.697Z,28.12
2019-06-11T13:44:24.689Z,31.27
2019-06-11T13:46:30.861Z,32.97
2019-06-11T13:49:04.176Z,34.37
2019-06-11T13:51:26.676Z,35.27
2019-06-11T13:54:07.537Z,31.94
2019-06-11T13:56:36.365Z,29.10
2019-06-11T13:59:12.281Z,28.56
2019-06-11T14:01:43.295Z,26.80
2019-06-11T14:04:11.407Z,25.28
2019-06-11T14:06:41.391Z,26.85
2019-06-11T14:09:15.476Z,26.73
2019-06-11T14:11:53.531Z,27.52
2019-06-11T14:14:31.578Z,28.03
2019-06-11T14:16:53.472Z,28.72
2019-06-11T14:19:40.320Z,28.32
2019-06-11T14:22:06.678Z,27.98
2019-06-11T14:24:34.502Z,28.38
2019-06-11T14:27:06.648Z,27.03
2019-06-11T14:29:49.995Z,26.50
2019-06-11T14:32:25.615Z,27.17
2019-06-11T14:34:52.021Z,26.01
2019-06-11T14:37:32.366Z,27.57
2019-06-11T14:40:04.239Z,28.46
2019-06-11T14:42:31.515Z,28.19
2019-06-11T14:45:01.669Z,28.35
2019-06-11T14:47:27.227Z,28.45
2019-06-11T14:49:56.018Z,28.46
2019-06-11T14:52:24.324Z,26.84
2019-06-11T14:54:52.916Z,27.21
2019-06-11T14:57:24.492Z,27.32
2019-06-11T14:59:52.401Z,27.90
2019-06-11T15:05:21.416Z,26.67
2019-06-11T15:07:52.426Z,25.58
2019-06-11T15:13:23.882Z,25.44
2019-06-11T15:15:58.068Z,26.48
2019-06-11T15:18:41.151Z,27.98
2019-06-11T15:21:07.717Z,27.55
2019-06-11T15:23:52.395Z,26.20
2019-06-11T15:26:25.570Z,26.39
2019-06-11T15:28:53.507Z,27.57
2019-06-11T15:31:21.419Z,25.93
2019-06-11T15:33:53.273Z,25.42
2019-06-11T15:36:21.219Z,25.43
2019-06-11T15:38:52.094Z,25.47
2019-06-11T15:41:21.251Z,25.14
2019-06-11T15:43:50.769Z,24.89
2019-06-11T15:46:30.623Z,24.99
2019-06-11T15:49:02.394Z,25.08
2019-06-11T15:51:27.363Z,24.46
2019-06-11T15:53:56.214Z,24.71
2019-06-11T15:56:37.683Z,24.77
2019-06-11T15:58:53.000Z,24.53
2019-06-11T16:01:22.691Z,24.75
2019-06-11T16:03:51.369Z,24.52
2019-06-11T16:09:26.938Z,23.74
2019-06-11T16:11:52.431Z,23.30
2019-06-11T16:14:22.272Z,22.81
2019-06-11T16:16:50.190Z,22.61
2019-06-11T16:19:21.371Z,22.41
2019-06-11T16:21:48.551Z,22.27
2019-06-11T16:27:18.681Z,22.28
2019-06-11T16:29:48.171Z,22.39
2019-06-11T16:32:27.174Z,22.56
2019-06-11T16:34:55.447Z,22.89
2019-06-11T16:37:47.225Z,22.85
2019-06-11T16:40:25.881Z,22.49
2019-06-11T16:42:54.729Z,22.52
2019-06-11T16:45:23.617Z,22.40
2019-06-11T16:47:51.519Z,21.68
2019-06-11T16:50:33.353Z,21.71
2019-06-11T16:53:21.582Z,21.99
2019-06-11T16:55:50.863Z,22.00
2019-06-11T16:58:16.082Z,22.08
2019-06-11T17:00:45.056Z,21.50
2019-06-11T17:03:16.007Z,21.30
2019-06-11T17:05:54.376Z,21.14
2019-06-11T17:08:26.431Z,20.66
2019-06-11T17:11:04.008Z,20.65
2019-06-11T17:13:57.219Z,20.13
2019-06-11T17:16:36.897Z,20.16
2019-06-11T17:19:04.784Z,20.02
2019-06-11T17:24:33.928Z,19.86
2019-06-11T17:27:05.472Z,19.85
2019-06-11T17:32:40.305Z,20.01
2019-06-11T17:35:06.767Z,20.04
2019-06-11T17:37:34.606Z,20.09
2019-06-11T17:40:05.807Z,20.01
2019-06-11T17:45:33.362Z,19.77
2019-06-11T17:48:07.107Z,19.92
2019-06-11T17:50:35.029Z,19.80
2019-06-11T17:53:07.183Z,19.83
2019-06-11T17:55:35.328Z,19.90
2019-06-11T17:58:10.397Z,19.78
2019-06-11T18:00:37.346Z,19.84
2019-06-11T18:03:31.871Z,19.82
2019-06-11T18:06:13.506Z,19.57
2019-06-11T18:08:41.556Z,19.24
2019-06-11T18:11:10.416Z,19.27
2019-06-11T18:13:37.227Z,19.14
2019-06-11T18:16:22.702Z,18.73
2019-06-11T18:19:00.609Z,18.58
2019-06-11T18:21:27.337Z,18.52
2019-06-11T18:27:22.621Z,18.40
2019-06-11T18:29:47.239Z,18.34
2019-06-11T18:32:32.738Z,18.37
2019-06-11T18:35:00.456Z,18.35
2019-06-11T18:37:33.431Z,18.32
2019-06-11T18:41:29.527Z,18.50
2019-06-11T18:44:00.078Z,18.43
2019-06-11T18:46:34.818Z,18.31
2019-06-11T18:49:33.894Z,18.24
2019-06-11T18:52:00.317Z,18.03
2019-06-11T18:54:32.441Z,17.87
2019-06-11T18:57:32.128Z,17.84
2019-06-11T19:00:00.820Z,17.74
2019-06-11T19:02:34.162Z,17.68
2019-06-11T19:05:32.627Z,17.59
2019-06-11T19:08:32.438Z,17.54
2019-06-11T19:11:04.859Z,17.51
2019-06-11T19:13:36.204Z,17.52
2019-06-11T19:16:37.140Z,17.55
2019-06-11T19:19:21.054Z,17.54
2019-06-11T19:21:47.029Z,17.62
2019-06-11T19:24:31.670Z,17.58
2019-06-11T19:29:34.830Z,17.76
2019-06-11T19:34:45.417Z,17.92
2019-06-11T19:37:29.000Z,17.83
2019-06-11T19:40:35.697Z,17.75
2019-06-11T19:43:31.420Z,17.66
2019-06-11T19:46:15.313Z,17.63
2019-06-11T19:48:45.258Z,17.55
2019-06-11T19:51:15.630Z,17.51
2019-06-11T19:53:43.974Z,17.44
2019-06-11T19:56:24.985Z,17.41
2019-06-11T19:58:56.689Z,17.43
2019-06-11T20:01:30.596Z,17.38
2019-06-11T20:04:29.963Z,17.28
2019-06-11T20:07:20.635Z,17.22
2019-06-11T20:09:47.730Z,17.13
2019-06-11T20:12:27.668Z,17.17
2019-06-11T20:20:06.447Z,17.13
2019-06-11T20:22:53.235Z,17.21
2019-06-11T20:25:31.989Z,17.29
2019-06-11T20:27:56.809Z,17.16
2019-06-11T20:33:00.175Z,17.06
2019-06-11T20:35:55.879Z,17.15
2019-06-11T20:38:26.176Z,17.03
2019-06-11T20:40:56.504Z,16.99
2019-06-11T20:43:36.085Z,16.97
2019-06-11T20:46:02.959Z,16.93
2019-06-11T20:48:55.897Z,16.88
2019-06-11T20:54:02.434Z,16.98
2019-06-11T20:56:50.657Z,16.94
2019-06-11T21:01:54.510Z,16.94
2019-06-11T21:04:55.016Z,16.96
2019-06-11T21:07:54.831Z,16.93
2019-06-11T21:10:40.165Z,16.83
2019-06-11T21:15:57.779Z,16.91
2019-06-11T21:18:46.571Z,16.91
2019-06-11T21:24:25.886Z,16.98
2019-06-11T21:26:55.261Z,16.97
2019-06-11T21:29:53.591Z,16.86
2019-06-11T21:32:22.913Z,16.85
2019-06-11T21:35:01.598Z,16.76
2019-06-11T21:37:30.114Z,16.68
2019-06-11T21:40:26.134Z,16.61
2019-06-11T21:43:01.539Z,16.53
2019-06-11T21:45:30.314Z,16.37
2019-06-11T21:48:24.023Z,16.43
2019-06-11T21:51:16.437Z,16.29
2019-06-11T21:53:52.081Z,16.13
2019-06-11T21:59:13.882Z,16.11
2019-06-11T22:01:43.881Z,16.00
2019-06-11T22:04:10.761Z,15.92
2019-06-11T22:06:41.294Z,15.85
2019-06-11T22:09:25.101Z,15.72
2019-06-11T22:14:27.812Z,15.70
2019-06-11T22:19:33.488Z,15.58
2019-06-11T22:22:20.897Z,15.47
2019-06-11T22:27:23.589Z,15.70
2019-06-11T22:30:15.564Z,15.85
2019-06-11T22:32:44.031Z,16.03
2019-06-11T22:35:16.272Z,16.11
2019-06-11T22:38:11.161Z,16.06
2019-06-11T22:40:44.292Z,15.91
2019-06-11T22:45:51.318Z,15.98
2019-06-11T22:48:48.354Z,15.98
2019-06-11T22:51:20.582Z,15.98
2019-06-11T22:53:52.447Z,15.88
2019-06-11T22:56:47.745Z,15.83
2019-06-11T22:59:48.061Z,15.92
2019-06-11T23:04:52.476Z,15.86
2019-06-11T23:07:48.934Z,15.94
2019-06-11T23:10:47.011Z,15.86
2019-06-11T23:13:22.969Z,15.74
2019-06-11T23:15:53.112Z,15.67
2019-06-11T23:20:56.984Z,15.79
2019-06-11T23:23:46.873Z,15.82
2019-06-11T23:26:46.217Z,15.85
2019-06-11T23:29:43.141Z,15.85
2019-06-11T23:38:14.959Z,15.86
2019-06-11T23:40:48.355Z,15.82
2019-06-11T23:43:46.623Z,15.81
2019-06-11T23:46:34.956Z,15.75
2019-06-11T23:49:03.312Z,15.69
2019-06-11T23:51:51.638Z,15.69
2019-06-11T23:54:17.188Z,15.79
2019-06-11T23:59:25.962Z,15.88
